sensor_id;sensor_type;location;lat;lon;timestamp;P1;durP1;ratioP1;P2;durP2;ratioP2
41627;SDS011;27321;50.816;6.054;2024-02-26T00:01:28;1.20;;;1.10;;
41627;SDS011;27321;50.816;6.054;2024-02-26T00:04:33;1.37;;;1.13;;
41627;SDS011;27321;50.816;6.054;2024-02-26T00:07:34;1.00;;;0.90;;
41627;SDS011;27321;50.816;6.054;2024-02-26T00:10:35;1.50;;;1.23;;
41627;SDS011;27321;50.816;6.054;2024-02-26T00:13:36;1.40;;;1.00;;
41627;SDS011;27321;50.816;6.054;2024-02-26T00:16:39;1.10;;;0.93;;
41627;SDS011;27321;50.816;6.054;2024-02-26T00:19:42;1.23;;;0.90;;
41627;SDS011;27321;50.816;6.054;2024-02-26T00:22:43;1.93;;;1.20;;
41627;SDS011;27321;50.816;6.054;2024-02-26T00:25:44;1.50;;;1.13;;
41627;SDS011;27321;50.816;6.054;2024-02-26T00:28:45;2.42;;;1.40;;
41627;SDS011;27321;50.816;6.054;2024-02-26T00:31:46;2.20;;;1.10;;
41627;SDS011;27321;50.816;6.054;2024-02-26T00:34:48;2.47;;;1.23;;
41627;SDS011;27321;50.816;6.054;2024-02-26T00:37:49;0.97;;;0.93;;
41627;SDS011;27321;50.816;6.054;2024-02-26T00:40:50;1.43;;;0.97;;
41627;SDS011;27321;50.816;6.054;2024-02-26T00:43:50;1.60;;;1.00;;
41627;SDS011;27321;50.816;6.054;2024-02-26T00:46:51;1.07;;;0.97;;
41627;SDS011;27321;50.816;6.054;2024-02-26T00:49:52;2.73;;;1.03;;
41627;SDS011;27321;50.816;6.054;2024-02-26T00:52:53;3.50;;;0.83;;
41627;SDS011;27321;50.816;6.054;2024-02-26T00:55:54;1.57;;;1.00;;
41627;SDS011;27321;50.816;6.054;2024-02-26T00:58:56;0.70;;;0.70;;
41627;SDS011;27321;50.816;6.054;2024-02-26T01:01:56;1.20;;;0.83;;
41627;SDS011;27321;50.816;6.054;2024-02-26T01:04:59;1.00;;;0.70;;
41627;SDS011;27321;50.816;6.054;2024-02-26T01:08:00;0.77;;;0.70;;
41627;SDS011;27321;50.816;6.054;2024-02-26T01:11:02;1.67;;;0.80;;
41627;SDS011;27321;50.816;6.054;2024-02-26T01:14:03;1.08;;;0.75;;
41627;SDS011;27321;50.816;6.054;2024-02-26T01:17:06;0.57;;;0.57;;
41627;SDS011;27321;50.816;6.054;2024-02-26T01:20:07;2.77;;;0.83;;
41627;SDS011;27321;50.816;6.054;2024-02-26T01:26:10;0.77;;;0.67;;
41627;SDS011;27321;50.816;6.054;2024-02-26T01:29:11;2.08;;;0.90;;
41627;SDS011;27321;50.816;6.054;2024-02-26T01:32:12;0.73;;;0.60;;
41627;SDS011;27321;50.816;6.054;2024-02-26T01:35:14;0.97;;;0.63;;
41627;SDS011;27321;50.816;6.054;2024-02-26T01:41:16;1.17;;;0.77;;
41627;SDS011;27321;50.816;6.054;2024-02-26T01:44:17;1.40;;;0.70;;
41627;SDS011;27321;50.816;6.054;2024-02-26T01:47:17;1.30;;;0.80;;
41627;SDS011;27321;50.816;6.054;2024-02-26T01:50:19;0.60;;;0.47;;
41627;SDS011;27321;50.816;6.054;2024-02-26T01:53:20;0.57;;;0.50;;
41627;SDS011;27321;50.816;6.054;2024-02-26T01:56:22;0.68;;;0.68;;
41627;SDS011;27321;50.816;6.054;2024-02-26T01:59:28;0.97;;;0.70;;
41627;SDS011;27321;50.816;6.054;2024-02-26T02:02:29;0.60;;;0.50;;
41627;SDS011;27321;50.816;6.054;2024-02-26T02:05:30;0.65;;;0.60;;
41627;SDS011;27321;50.816;6.054;2024-02-26T02:08:31;1.67;;;0.70;;
41627;SDS011;27321;50.816;6.054;2024-02-26T02:11:33;1.85;;;0.60;;
41627;SDS011;27321;50.816;6.054;2024-02-26T02:14:34;0.88;;;0.60;;
41627;SDS011;27321;50.816;6.054;2024-02-26T02:17:35;1.07;;;0.80;;
41627;SDS011;27321;50.816;6.054;2024-02-26T02:20:36;1.23;;;0.60;;
41627;SDS011;27321;50.816;6.054;2024-02-26T02:23:37;1.53;;;0.90;;
41627;SDS011;27321;50.816;6.054;2024-02-26T02:26:39;1.40;;;1.02;;
41627;SDS011;27321;50.816;6.054;2024-02-26T02:29:40;1.55;;;0.90;;
41627;SDS011;27321;50.816;6.054;2024-02-26T02:32:41;1.35;;;0.80;;
41627;SDS011;27321;50.816;6.054;2024-02-26T02:35:42;3.17;;;1.00;;
41627;SDS011;27321;50.816;6.054;2024-02-26T02:38:53;1.27;;;0.80;;
41627;SDS011;27321;50.816;6.054;2024-02-26T02:41:54;0.60;;;0.60;;
41627;SDS011;27321;50.816;6.054;2024-02-26T02:44:55;0.77;;;0.60;;
41627;SDS011;27321;50.816;6.054;2024-02-26T02:47:55;0.70;;;0.70;;
41627;SDS011;27321;50.816;6.054;2024-02-26T02:50:56;1.10;;;0.80;;
41627;SDS011;27321;50.816;6.054;2024-02-26T02:53:58;2.25;;;0.95;;
41627;SDS011;27321;50.816;6.054;2024-02-26T02:56:59;1.73;;;0.93;;
41627;SDS011;27321;50.816;6.054;2024-02-26T03:00:02;1.77;;;1.00;;
41627;SDS011;27321;50.816;6.054;2024-02-26T03:03:05;1.57;;;1.00;;
41627;SDS011;27321;50.816;6.054;2024-02-26T03:06:06;1.73;;;0.98;;
41627;SDS011;27321;50.816;6.054;2024-02-26T03:09:07;2.45;;;0.82;;
41627;SDS011;27321;50.816;6.054;2024-02-26T03:12:08;1.30;;;0.60;;
41627;SDS011;27321;50.816;6.054;2024-02-26T03:15:09;1.23;;;0.80;;
41627;SDS011;27321;50.816;6.054;2024-02-26T03:18:11;2.97;;;1.00;;
41627;SDS011;27321;50.816;6.054;2024-02-26T03:21:12;2.73;;;1.43;;
41627;SDS011;27321;50.816;6.054;2024-02-26T03:24:13;1.63;;;1.17;;
41627;SDS011;27321;50.816;6.054;2024-02-26T03:27:14;1.45;;;1.13;;
41627;SDS011;27321;50.816;6.054;2024-02-26T03:30:15;1.20;;;1.00;;
41627;SDS011;27321;50.816;6.054;2024-02-26T03:33:17;1.40;;;0.88;;
41627;SDS011;27321;50.816;6.054;2024-02-26T03:36:17;1.93;;;1.03;;
41627;SDS011;27321;50.816;6.054;2024-02-26T03:39:18;0.87;;;0.87;;
41627;SDS011;27321;50.816;6.054;2024-02-26T03:42:19;2.23;;;1.07;;
41627;SDS011;27321;50.816;6.054;2024-02-26T03:45:20;1.73;;;1.10;;
41627;SDS011;27321;50.816;6.054;2024-02-26T03:48:21;1.77;;;1.30;;
41627;SDS011;27321;50.816;6.054;2024-02-26T03:51:22;1.10;;;1.00;;
41627;SDS011;27321;50.816;6.054;2024-02-26T03:54:23;1.20;;;1.10;;
41627;SDS011;27321;50.816;6.054;2024-02-26T03:57:24;1.70;;;1.10;;
41627;SDS011;27321;50.816;6.054;2024-02-26T04:00:25;1.10;;;1.00;;
41627;SDS011;27321;50.816;6.054;2024-02-26T04:03:26;0.80;;;0.80;;
41627;SDS011;27321;50.816;6.054;2024-02-26T04:06:27;0.97;;;0.87;;
41627;SDS011;27321;50.816;6.054;2024-02-26T04:09:28;1.70;;;0.80;;
41627;SDS011;27321;50.816;6.054;2024-02-26T04:12:31;1.53;;;0.90;;
41627;SDS011;27321;50.816;6.054;2024-02-26T04:15:32;2.67;;;1.00;;
41627;SDS011;27321;50.816;6.054;2024-02-26T04:18:34;0.93;;;0.70;;
41627;SDS011;27321;50.816;6.054;2024-02-26T04:21:35;1.00;;;0.77;;
41627;SDS011;27321;50.816;6.054;2024-02-26T04:24:36;1.20;;;1.00;;
41627;SDS011;27321;50.816;6.054;2024-02-26T04:27:37;0.90;;;0.90;;
41627;SDS011;27321;50.816;6.054;2024-02-26T04:30:38;0.95;;;0.82;;
41627;SDS011;27321;50.816;6.054;2024-02-26T04:33:39;0.70;;;0.70;;
41627;SDS011;27321;50.816;6.054;2024-02-26T04:36:42;1.30;;;0.70;;
41627;SDS011;27321;50.816;6.054;2024-02-26T04:39:43;0.73;;;0.73;;
41627;SDS011;27321;50.816;6.054;2024-02-26T04:42:44;0.70;;;0.70;;
41627;SDS011;27321;50.816;6.054;2024-02-26T04:45:44;0.77;;;0.70;;
41627;SDS011;27321;50.816;6.054;2024-02-26T04:48:46;0.82;;;0.82;;
41627;SDS011;27321;50.816;6.054;2024-02-26T04:51:47;2.20;;;0.82;;
41627;SDS011;27321;50.816;6.054;2024-02-26T04:54:48;2.15;;;0.68;;
41627;SDS011;27321;50.816;6.054;2024-02-26T04:57:49;0.60;;;0.60;;
41627;SDS011;27321;50.816;6.054;2024-02-26T05:00:50;1.37;;;1.00;;
41627;SDS011;27321;50.816;6.054;2024-02-26T05:03:51;1.67;;;0.87;;
41627;SDS011;27321;50.816;6.054;2024-02-26T05:06:52;1.00;;;0.70;;
41627;SDS011;27321;50.816;6.054;2024-02-26T05:09:53;1.75;;;0.75;;
41627;SDS011;27321;50.816;6.054;2024-02-26T05:12:54;0.60;;;0.60;;
41627;SDS011;27321;50.816;6.054;2024-02-26T05:15:55;1.77;;;0.60;;
41627;SDS011;27321;50.816;6.054;2024-02-26T05:18:56;0.67;;;0.60;;
41627;SDS011;27321;50.816;6.054;2024-02-26T05:21:58;1.88;;;1.00;;
41627;SDS011;27321;50.816;6.054;2024-02-26T05:24:59;1.53;;;0.77;;
41627;SDS011;27321;50.816;6.054;2024-02-26T05:28:00;2.28;;;0.90;;
41627;SDS011;27321;50.816;6.054;2024-02-26T05:31:02;2.63;;;0.80;;
41627;SDS011;27321;50.816;6.054;2024-02-26T05:34:03;1.65;;;1.05;;
41627;SDS011;27321;50.816;6.054;2024-02-26T05:37:04;1.07;;;0.97;;
41627;SDS011;27321;50.816;6.054;2024-02-26T05:40:06;1.48;;;1.00;;
41627;SDS011;27321;50.816;6.054;2024-02-26T05:43:07;1.02;;;0.90;;
41627;SDS011;27321;50.816;6.054;2024-02-26T05:46:08;0.77;;;0.77;;
41627;SDS011;27321;50.816;6.054;2024-02-26T05:49:09;0.80;;;0.80;;
41627;SDS011;27321;50.816;6.054;2024-02-26T05:52:10;3.27;;;1.07;;
41627;SDS011;27321;50.816;6.054;2024-02-26T05:55:10;3.67;;;0.80;;
41627;SDS011;27321;50.816;6.054;2024-02-26T06:01:17;0.93;;;0.70;;
41627;SDS011;27321;50.816;6.054;2024-02-26T06:04:20;0.87;;;0.80;;
41627;SDS011;27321;50.816;6.054;2024-02-26T06:07:21;3.43;;;0.90;;
41627;SDS011;27321;50.816;6.054;2024-02-26T06:10:22;2.53;;;1.13;;
41627;SDS011;27321;50.816;6.054;2024-02-26T06:13:22;2.43;;;1.20;;
41627;SDS011;27321;50.816;6.054;2024-02-26T06:16:23;1.40;;;1.30;;
41627;SDS011;27321;50.816;6.054;2024-02-26T06:19:24;3.10;;;0.97;;
41627;SDS011;27321;50.816;6.054;2024-02-26T06:22:25;1.40;;;1.27;;
41627;SDS011;27321;50.816;6.054;2024-02-26T06:25:27;1.00;;;1.00;;
41627;SDS011;27321;50.816;6.054;2024-02-26T06:28:28;2.47;;;1.10;;
41627;SDS011;27321;50.816;6.054;2024-02-26T06:31:30;1.27;;;1.13;;
41627;SDS011;27321;50.816;6.054;2024-02-26T06:34:31;1.53;;;1.13;;
41627;SDS011;27321;50.816;6.054;2024-02-26T06:37:32;1.77;;;1.33;;
41627;SDS011;27321;50.816;6.054;2024-02-26T06:40:33;1.60;;;1.50;;
41627;SDS011;27321;50.816;6.054;2024-02-26T06:43:34;2.07;;;1.70;;
41627;SDS011;27321;50.816;6.054;2024-02-26T06:46:35;1.23;;;1.13;;
41627;SDS011;27321;50.816;6.054;2024-02-26T06:49:36;1.93;;;1.33;;
41627;SDS011;27321;50.816;6.054;2024-02-26T06:52:38;2.20;;;1.40;;
41627;SDS011;27321;50.816;6.054;2024-02-26T06:55:39;1.23;;;1.13;;
41627;SDS011;27321;50.816;6.054;2024-02-26T07:01:41;1.27;;;1.00;;
41627;SDS011;27321;50.816;6.054;2024-02-26T07:04:42;1.60;;;1.10;;
41627;SDS011;27321;50.816;6.054;2024-02-26T07:07:43;1.10;;;1.00;;
41627;SDS011;27321;50.816;6.054;2024-02-26T07:10:44;1.48;;;1.30;;
41627;SDS011;27321;50.816;6.054;2024-02-26T07:13:46;1.85;;;1.30;;
41627;SDS011;27321;50.816;6.054;2024-02-26T07:16:47;1.17;;;1.08;;
41627;SDS011;27321;50.816;6.054;2024-02-26T07:19:48;1.50;;;1.40;;
41627;SDS011;27321;50.816;6.054;2024-02-26T07:22:49;2.50;;;1.90;;
41627;SDS011;27321;50.816;6.054;2024-02-26T07:25:50;1.50;;;1.40;;
41627;SDS011;27321;50.816;6.054;2024-02-26T07:28:53;1.40;;;1.30;;
41627;SDS011;27321;50.816;6.054;2024-02-26T07:31:53;1.90;;;1.47;;
41627;SDS011;27321;50.816;6.054;2024-02-26T07:34:54;2.43;;;1.57;;
41627;SDS011;27321;50.816;6.054;2024-02-26T07:37:55;2.10;;;1.60;;
41627;SDS011;27321;50.816;6.054;2024-02-26T07:40:56;1.77;;;1.50;;
41627;SDS011;27321;50.816;6.054;2024-02-26T07:43:57;1.67;;;1.58;;
41627;SDS011;27321;50.816;6.054;2024-02-26T07:46:58;1.47;;;1.30;;
41627;SDS011;27321;50.816;6.054;2024-02-26T07:49:59;1.30;;;1.20;;
41627;SDS011;27321;50.816;6.054;2024-02-26T07:53:02;1.90;;;1.77;;
41627;SDS011;27321;50.816;6.054;2024-02-26T07:56:03;3.40;;;1.50;;
41627;SDS011;27321;50.816;6.054;2024-02-26T07:59:04;1.92;;;1.45;;
41627;SDS011;27321;50.816;6.054;2024-02-26T08:02:05;1.50;;;1.30;;
41627;SDS011;27321;50.816;6.054;2024-02-26T08:05:06;3.65;;;3.35;;
41627;SDS011;27321;50.816;6.054;2024-02-26T08:08:07;4.80;;;4.40;;
41627;SDS011;27321;50.816;6.054;2024-02-26T08:11:08;5.32;;;4.82;;
41627;SDS011;27321;50.816;6.054;2024-02-26T08:14:09;8.77;;;5.77;;
41627;SDS011;27321;50.816;6.054;2024-02-26T08:20:40;4.10;;;2.97;;
41627;SDS011;27321;50.816;6.054;2024-02-26T08:23:42;3.30;;;3.00;;
41627;SDS011;27321;50.816;6.054;2024-02-26T08:26:44;2.77;;;2.43;;
41627;SDS011;27321;50.816;6.054;2024-02-26T08:29:48;3.87;;;3.40;;
41627;SDS011;27321;50.816;6.054;2024-02-26T08:32:48;4.70;;;3.83;;
41627;SDS011;27321;50.816;6.054;2024-02-26T08:35:49;3.67;;;2.90;;
41627;SDS011;27321;50.816;6.054;2024-02-26T08:38:50;4.30;;;3.07;;
41627;SDS011;27321;50.816;6.054;2024-02-26T08:41:51;2.50;;;2.30;;
41627;SDS011;27321;50.816;6.054;2024-02-26T08:44:52;3.38;;;3.03;;
41627;SDS011;27321;50.816;6.054;2024-02-26T08:47:56;3.53;;;2.73;;
41627;SDS011;27321;50.816;6.054;2024-02-26T08:50:58;3.83;;;3.47;;
41627;SDS011;27321;50.816;6.054;2024-02-26T08:53:59;2.80;;;2.60;;
41627;SDS011;27321;50.816;6.054;2024-02-26T08:57:02;3.83;;;2.93;;
41627;SDS011;27321;50.816;6.054;2024-02-26T09:00:04;5.10;;;4.60;;
41627;SDS011;27321;50.816;6.054;2024-02-26T09:03:06;4.20;;;3.80;;
41627;SDS011;27321;50.816;6.054;2024-02-26T09:06:07;4.78;;;3.53;;
41627;SDS011;27321;50.816;6.054;2024-02-26T09:09:08;3.55;;;3.05;;
41627;SDS011;27321;50.816;6.054;2024-02-26T09:12:09;4.03;;;2.97;;
41627;SDS011;27321;50.816;6.054;2024-02-26T09:15:10;3.10;;;2.33;;
41627;SDS011;27321;50.816;6.054;2024-02-26T09:18:11;2.20;;;2.00;;
41627;SDS011;27321;50.816;6.054;2024-02-26T09:21:13;2.85;;;2.47;;
41627;SDS011;27321;50.816;6.054;2024-02-26T09:24:14;3.73;;;2.30;;
41627;SDS011;27321;50.816;6.054;2024-02-26T09:27:16;3.23;;;2.10;;
41627;SDS011;27321;50.816;6.054;2024-02-26T09:30:17;2.83;;;2.23;;
41627;SDS011;27321;50.816;6.054;2024-02-26T09:33:19;5.72;;;3.03;;
41627;SDS011;27321;50.816;6.054;2024-02-26T09:36:20;4.87;;;3.77;;
41627;SDS011;27321;50.816;6.054;2024-02-26T09:39:25;3.78;;;3.20;;
41627;SDS011;27321;50.816;6.054;2024-02-26T09:42:26;5.83;;;4.10;;
41627;SDS011;27321;50.816;6.054;2024-02-26T09:45:28;8.57;;;5.95;;
41627;SDS011;27321;50.816;6.054;2024-02-26T09:48:29;7.33;;;5.60;;
41627;SDS011;27321;50.816;6.054;2024-02-26T09:54:32;9.87;;;6.97;;
41627;SDS011;27321;50.816;6.054;2024-02-26T09:57:33;12.10;;;7.18;;
41627;SDS011;27321;50.816;6.054;2024-02-26T10:00:37;20.70;;;10.40;;
41627;SDS011;27321;50.816;6.054;2024-02-26T10:03:40;21.40;;;11.90;;
41627;SDS011;27321;50.816;6.054;2024-02-26T10:06:42;20.07;;;9.43;;
41627;SDS011;27321;50.816;6.054;2024-02-26T10:09:45;12.87;;;7.43;;
41627;SDS011;27321;50.816;6.054;2024-02-26T10:12:46;8.70;;;4.93;;
41627;SDS011;27321;50.816;6.054;2024-02-26T10:15:47;5.87;;;3.60;;
41627;SDS011;27321;50.816;6.054;2024-02-26T10:18:48;5.05;;;2.92;;
41627;SDS011;27321;50.816;6.054;2024-02-26T10:21:52;2.87;;;2.10;;
41627;SDS011;27321;50.816;6.054;2024-02-26T10:24:57;1.67;;;1.50;;
41627;SDS011;27321;50.816;6.054;2024-02-26T10:27:59;1.00;;;1.00;;
41627;SDS011;27321;50.816;6.054;2024-02-26T10:31:04;0.87;;;0.53;;
41627;SDS011;27321;50.816;6.054;2024-02-26T10:34:05;0.80;;;0.47;;
41627;SDS011;27321;50.816;6.054;2024-02-26T10:37:06;1.13;;;0.60;;
41627;SDS011;27321;50.816;6.054;2024-02-26T10:40:13;0.43;;;0.40;;
41627;SDS011;27321;50.816;6.054;2024-02-26T10:43:15;0.60;;;0.50;;
41627;SDS011;27321;50.816;6.054;2024-02-26T10:46:16;0.30;;;0.30;;
41627;SDS011;27321;50.816;6.054;2024-02-26T10:49:17;0.70;;;0.70;;
41627;SDS011;27321;50.816;6.054;2024-02-26T10:52:19;1.00;;;0.67;;
41627;SDS011;27321;50.816;6.054;2024-02-26T10:55:23;0.83;;;0.60;;
41627;SDS011;27321;50.816;6.054;2024-02-26T10:58:24;1.90;;;0.82;;
41627;SDS011;27321;50.816;6.054;2024-02-26T11:01:26;0.70;;;0.70;;
41627;SDS011;27321;50.816;6.054;2024-02-26T11:04:29;1.23;;;1.00;;
41627;SDS011;27321;50.816;6.054;2024-02-26T11:07:30;1.35;;;0.93;;
41627;SDS011;27321;50.816;6.054;2024-02-26T11:13:33;1.43;;;1.10;;
41627;SDS011;27321;50.816;6.054;2024-02-26T11:16:39;1.17;;;1.10;;
41627;SDS011;27321;50.816;6.054;2024-02-26T11:19:42;1.70;;;1.20;;
41627;SDS011;27321;50.816;6.054;2024-02-26T11:22:45;1.07;;;0.97;;
41627;SDS011;27321;50.816;6.054;2024-02-26T11:25:46;1.67;;;1.00;;
41627;SDS011;27321;50.816;6.054;2024-02-26T11:28:48;1.20;;;0.88;;
41627;SDS011;27321;50.816;6.054;2024-02-26T11:31:50;2.38;;;1.02;;
41627;SDS011;27321;50.816;6.054;2024-02-26T11:34:51;1.00;;;0.80;;
41627;SDS011;27321;50.816;6.054;2024-02-26T11:37:56;0.50;;;0.50;;
41627;SDS011;27321;50.816;6.054;2024-02-26T11:40:58;1.10;;;1.00;;
41627;SDS011;27321;50.816;6.054;2024-02-26T11:44:01;1.58;;;1.08;;
41627;SDS011;27321;50.816;6.054;2024-02-26T11:47:17;1.63;;;1.10;;
41627;SDS011;27321;50.816;6.054;2024-02-26T11:50:39;1.30;;;1.20;;
41627;SDS011;27321;50.816;6.054;2024-02-26T11:53:54;1.20;;;1.10;;
41627;SDS011;27321;50.816;6.054;2024-02-26T11:56:58;1.30;;;1.10;;
41627;SDS011;27321;50.816;6.054;2024-02-26T12:00:12;1.63;;;1.10;;
41627;SDS011;27321;50.816;6.054;2024-02-26T12:03:14;1.23;;;1.13;;
41627;SDS011;27321;50.816;6.054;2024-02-26T12:06:16;1.20;;;1.10;;
41627;SDS011;27321;50.816;6.054;2024-02-26T12:12:41;1.20;;;1.10;;
41627;SDS011;27321;50.816;6.054;2024-02-26T12:15:43;1.25;;;1.15;;
41627;SDS011;27321;50.816;6.054;2024-02-26T12:18:46;1.40;;;1.00;;
41627;SDS011;27321;50.816;6.054;2024-02-26T12:21:51;1.60;;;1.10;;
41627;SDS011;27321;50.816;6.054;2024-02-26T12:24:59;1.77;;;1.37;;
41627;SDS011;27321;50.816;6.054;2024-02-26T12:28:05;2.20;;;1.33;;
41627;SDS011;27321;50.816;6.054;2024-02-26T12:31:07;3.20;;;2.67;;
41627;SDS011;27321;50.816;6.054;2024-02-26T12:34:08;2.97;;;2.10;;
41627;SDS011;27321;50.816;6.054;2024-02-26T12:37:10;2.60;;;2.40;;
41627;SDS011;27321;50.816;6.054;2024-02-26T12:40:11;2.28;;;1.92;;
41627;SDS011;27321;50.816;6.054;2024-02-26T12:43:13;2.63;;;2.42;;
41627;SDS011;27321;50.816;6.054;2024-02-26T12:46:14;2.65;;;2.42;;
41627;SDS011;27321;50.816;6.054;2024-02-26T12:52:18;2.72;;;2.05;;
41627;SDS011;27321;50.816;6.054;2024-02-26T12:55:19;2.53;;;2.30;;
41627;SDS011;27321;50.816;6.054;2024-02-26T12:58:21;2.30;;;2.10;;
41627;SDS011;27321;50.816;6.054;2024-02-26T13:01:25;3.77;;;2.60;;
41627;SDS011;27321;50.816;6.054;2024-02-26T13:07:30;2.80;;;1.90;;
41627;SDS011;27321;50.816;6.054;2024-02-26T13:10:31;2.25;;;2.05;;
41627;SDS011;27321;50.816;6.054;2024-02-26T13:13:32;2.65;;;2.30;;
41627;SDS011;27321;50.816;6.054;2024-02-26T13:16:33;2.70;;;2.50;;
41627;SDS011;27321;50.816;6.054;2024-02-26T13:19:34;3.47;;;2.90;;
41627;SDS011;27321;50.816;6.054;2024-02-26T13:22:35;3.15;;;2.13;;
41627;SDS011;27321;50.816;6.054;2024-02-26T13:28:39;2.90;;;2.45;;
41627;SDS011;27321;50.816;6.054;2024-02-26T13:31:40;5.63;;;3.95;;
41627;SDS011;27321;50.816;6.054;2024-02-26T13:34:41;6.27;;;4.30;;
41627;SDS011;27321;50.816;6.054;2024-02-26T13:37:42;4.97;;;3.67;;
41627;SDS011;27321;50.816;6.054;2024-02-26T13:40:43;5.65;;;4.38;;
41627;SDS011;27321;50.816;6.054;2024-02-26T13:43:44;5.32;;;3.90;;
41627;SDS011;27321;50.816;6.054;2024-02-26T13:46:46;4.90;;;3.93;;
41627;SDS011;27321;50.816;6.054;2024-02-26T13:49:47;7.33;;;4.70;;
41627;SDS011;27321;50.816;6.054;2024-02-26T13:52:48;4.20;;;3.03;;
41627;SDS011;27321;50.816;6.054;2024-02-26T13:55:53;4.83;;;3.57;;
41627;SDS011;27321;50.816;6.054;2024-02-26T13:58:54;6.97;;;4.47;;
41627;SDS011;27321;50.816;6.054;2024-02-26T14:01:55;9.17;;;5.70;;
41627;SDS011;27321;50.816;6.054;2024-02-26T14:04:56;3.67;;;3.17;;
41627;SDS011;27321;50.816;6.054;2024-02-26T14:07:57;3.63;;;3.33;;
41627;SDS011;27321;50.816;6.054;2024-02-26T14:10:58;4.00;;;3.60;;
41627;SDS011;27321;50.816;6.054;2024-02-26T14:14:02;4.50;;;3.87;;
41627;SDS011;27321;50.816;6.054;2024-02-26T14:17:03;7.78;;;4.85;;
41627;SDS011;27321;50.816;6.054;2024-02-26T14:20:06;7.53;;;5.53;;
41627;SDS011;27321;50.816;6.054;2024-02-26T14:23:09;6.07;;;4.50;;
41627;SDS011;27321;50.816;6.054;2024-02-26T14:26:10;8.15;;;5.68;;
41627;SDS011;27321;50.816;6.054;2024-02-26T14:29:12;8.15;;;5.97;;
41627;SDS011;27321;50.816;6.054;2024-02-26T14:32:13;9.60;;;6.60;;
41627;SDS011;27321;50.816;6.054;2024-02-26T14:35:17;9.13;;;6.03;;
41627;SDS011;27321;50.816;6.054;2024-02-26T14:38:18;9.53;;;4.87;;
41627;SDS011;27321;50.816;6.054;2024-02-26T14:41:19;15.73;;;8.15;;
41627;SDS011;27321;50.816;6.054;2024-02-26T14:44:20;14.63;;;7.90;;
41627;SDS011;27321;50.816;6.054;2024-02-26T14:47:21;14.43;;;7.90;;
41627;SDS011;27321;50.816;6.054;2024-02-26T14:50:22;22.97;;;11.60;;
41627;SDS011;27321;50.816;6.054;2024-02-26T14:53:24;20.38;;;10.52;;
41627;SDS011;27321;50.816;6.054;2024-02-26T14:56:25;20.37;;;11.23;;
41627;SDS011;27321;50.816;6.054;2024-02-26T14:59:26;14.13;;;8.88;;
41627;SDS011;27321;50.816;6.054;2024-02-26T15:02:27;15.60;;;9.02;;
41627;SDS011;27321;50.816;6.054;2024-02-26T15:08:29;10.17;;;7.67;;
41627;SDS011;27321;50.816;6.054;2024-02-26T15:11:31;9.10;;;6.50;;
41627;SDS011;27321;50.816;6.054;2024-02-26T15:14:32;7.00;;;6.18;;
41627;SDS011;27321;50.816;6.054;2024-02-26T15:17:33;7.65;;;6.15;;
41627;SDS011;27321;50.816;6.054;2024-02-26T15:20:36;8.30;;;6.10;;
41627;SDS011;27321;50.816;6.054;2024-02-26T15:23:42;7.10;;;6.00;;
41627;SDS011;27321;50.816;6.054;2024-02-26T15:26:48;10.50;;;6.70;;
41627;SDS011;27321;50.816;6.054;2024-02-26T15:29:49;9.33;;;6.57;;
41627;SDS011;27321;50.816;6.054;2024-02-26T15:32:56;7.23;;;5.83;;
41627;SDS011;27321;50.816;6.054;2024-02-26T15:35:57;10.27;;;7.27;;
41627;SDS011;27321;50.816;6.054;2024-02-26T15:38:58;8.67;;;5.90;;
41627;SDS011;27321;50.816;6.054;2024-02-26T15:42:02;9.20;;;6.93;;
41627;SDS011;27321;50.816;6.054;2024-02-26T15:45:04;7.90;;;6.50;;
41627;SDS011;27321;50.816;6.054;2024-02-26T15:51:07;9.38;;;7.18;;
41627;SDS011;27321;50.816;6.054;2024-02-26T15:54:08;8.63;;;6.70;;
41627;SDS011;27321;50.816;6.054;2024-02-26T15:57:13;8.47;;;6.97;;
41627;SDS011;27321;50.816;6.054;2024-02-26T16:00:14;8.90;;;6.20;;
41627;SDS011;27321;50.816;6.054;2024-02-26T16:03:15;9.13;;;6.45;;
41627;SDS011;27321;50.816;6.054;2024-02-26T16:06:31;9.80;;;6.88;;
41627;SDS011;27321;50.816;6.054;2024-02-26T16:09:38;6.50;;;5.78;;
41627;SDS011;27321;50.816;6.054;2024-02-26T16:12:40;8.87;;;6.40;;
41627;SDS011;27321;50.816;6.054;2024-02-26T16:15:47;7.37;;;5.87;;
41627;SDS011;27321;50.816;6.054;2024-02-26T16:18:58;7.47;;;5.77;;
41627;SDS011;27321;50.816;6.054;2024-02-26T16:22:09;8.03;;;5.67;;
41627;SDS011;27321;50.816;6.054;2024-02-26T16:25:10;9.70;;;6.30;;
41627;SDS011;27321;50.816;6.054;2024-02-26T16:28:11;7.60;;;5.93;;
41627;SDS011;27321;50.816;6.054;2024-02-26T16:31:15;8.03;;;5.77;;
41627;SDS011;27321;50.816;6.054;2024-02-26T16:34:19;7.30;;;6.10;;
41627;SDS011;27321;50.816;6.054;2024-02-26T16:37:20;7.77;;;6.10;;
41627;SDS011;27321;50.816;6.054;2024-02-26T16:40:21;7.35;;;6.15;;
41627;SDS011;27321;50.816;6.054;2024-02-26T16:43:22;9.63;;;6.05;;
41627;SDS011;27321;50.816;6.054;2024-02-26T16:46:23;7.77;;;5.00;;
41627;SDS011;27321;50.816;6.054;2024-02-26T16:49:24;7.97;;;5.60;;
41627;SDS011;27321;50.816;6.054;2024-02-26T16:52:25;7.33;;;5.40;;
41627;SDS011;27321;50.816;6.054;2024-02-26T16:55:27;6.95;;;4.68;;
41627;SDS011;27321;50.816;6.054;2024-02-26T16:58:28;6.03;;;4.53;;
41627;SDS011;27321;50.816;6.054;2024-02-26T17:01:30;7.50;;;5.17;;
41627;SDS011;27321;50.816;6.054;2024-02-26T17:04:31;7.47;;;5.03;;
41627;SDS011;27321;50.816;6.054;2024-02-26T17:07:32;5.13;;;4.60;;
41627;SDS011;27321;50.816;6.054;2024-02-26T17:10:33;6.63;;;4.87;;
41627;SDS011;27321;50.816;6.054;2024-02-26T17:13:34;6.17;;;5.37;;
41627;SDS011;27321;50.816;6.054;2024-02-26T17:16:37;5.75;;;4.65;;
41627;SDS011;27321;50.816;6.054;2024-02-26T17:19:39;5.83;;;4.23;;
41627;SDS011;27321;50.816;6.054;2024-02-26T17:22:40;5.63;;;4.47;;
41627;SDS011;27321;50.816;6.054;2024-02-26T17:25:41;7.50;;;4.77;;
41627;SDS011;27321;50.816;6.054;2024-02-26T17:28:43;5.50;;;4.40;;
41627;SDS011;27321;50.816;6.054;2024-02-26T17:31:44;5.68;;;4.65;;
41627;SDS011;27321;50.816;6.054;2024-02-26T17:34:45;5.90;;;4.40;;
41627;SDS011;27321;50.816;6.054;2024-02-26T17:37:48;5.70;;;4.40;;
41627;SDS011;27321;50.816;6.054;2024-02-26T17:40:53;5.80;;;4.30;;
41627;SDS011;27321;50.816;6.054;2024-02-26T17:43:54;8.67;;;4.90;;
41627;SDS011;27321;50.816;6.054;2024-02-26T17:46:55;5.37;;;4.47;;
41627;SDS011;27321;50.816;6.054;2024-02-26T17:49:56;8.90;;;6.30;;
41627;SDS011;27321;50.816;6.054;2024-02-26T17:52:58;6.88;;;5.32;;
41627;SDS011;27321;50.816;6.054;2024-02-26T17:55:59;7.93;;;5.47;;
41627;SDS011;27321;50.816;6.054;2024-02-26T17:59:06;8.63;;;6.37;;
41627;SDS011;27321;50.816;6.054;2024-02-26T18:02:07;9.13;;;6.67;;
41627;SDS011;27321;50.816;6.054;2024-02-26T18:05:08;7.50;;;6.53;;
41627;SDS011;27321;50.816;6.054;2024-02-26T18:08:10;10.50;;;7.55;;
41627;SDS011;27321;50.816;6.054;2024-02-26T18:11:11;10.27;;;7.65;;
41627;SDS011;27321;50.816;6.054;2024-02-26T18:14:12;10.65;;;7.97;;
41627;SDS011;27321;50.816;6.054;2024-02-26T18:17:13;10.20;;;7.90;;
41627;SDS011;27321;50.816;6.054;2024-02-26T18:20:15;10.60;;;8.60;;
41627;SDS011;27321;50.816;6.054;2024-02-26T18:23:16;11.82;;;8.25;;
41627;SDS011;27321;50.816;6.054;2024-02-26T18:26:17;12.98;;;8.85;;
41627;SDS011;27321;50.816;6.054;2024-02-26T18:29:21;12.67;;;9.50;;
41627;SDS011;27321;50.816;6.054;2024-02-26T18:32:22;11.70;;;9.33;;
41627;SDS011;27321;50.816;6.054;2024-02-26T18:35:25;12.77;;;9.63;;
41627;SDS011;27321;50.816;6.054;2024-02-26T18:38:26;12.48;;;9.25;;
41627;SDS011;27321;50.816;6.054;2024-02-26T18:41:27;14.67;;;10.07;;
41627;SDS011;27321;50.816;6.054;2024-02-26T18:44:28;14.20;;;9.73;;
41627;SDS011;27321;50.816;6.054;2024-02-26T18:47:29;11.85;;;9.07;;
41627;SDS011;27321;50.816;6.054;2024-02-26T18:50:30;11.63;;;9.10;;
41627;SDS011;27321;50.816;6.054;2024-02-26T18:53:31;13.68;;;9.60;;